Zanzibar — FAD4461 — position and weather

sailwx.info

Track history (hours):
 
Tides and Currents Weather Stations Pressure Air Temp Water Temp Dewpoint Dewpoint Depression Visibility Wind Speed Wind Dir Waves Ship Positions

Zanzibar

Last reported at 2017-Aug-31 07:53 UTC. Time now 2017-Sep-23 02:29 UTC.
Position N 47°54' W 004°50'.
Warning: this ship's position is 22 days out of date.

Type: Sailing vessel. MMSI: 227394350.

Date/timePositionNaut miles runAvg speedWind from/ knotsBaromVisibWave heightAir tempDewpointWater temp
2017-Aug-31 07:53N 47°54' W 004°50'2 4.5
2017-Aug-31 07:30N 47°55' W 004°52'2 4.6
2017-Aug-31 06:59N 47°56' W 004°55'5 5.3
2017-Aug-31 05:58N 47°59' W 005°02'5 4.5
2017-Aug-31 04:58N 48°01' W 005°07'5 4.7
2017-Aug-31 03:58N 48°05' W 005°11'5 4.7
2017-Aug-31 02:58N 48°09' W 005°15'6 5.6
2017-Aug-31 01:53N 48°15' W 005°18'44 0.9
2017-Aug-28 23:13N 48°59' W 005°14'4 6.0
2017-Aug-28 22:35N 48°58' W 005°08'0 5.5
2017-Aug-28 22:30N 48°58' W 005°08'9 4.6
2017-Aug-28 20:34N 48°51' W 004°58'0 4.2
2017-Aug-28 20:31N 48°51' W 004°58'8 5.3
2017-Aug-28 18:56N 48°45' W 004°49'4 6.3
2017-Aug-28 18:17N 48°42' W 004°45'2 5.9
2017-Aug-28 18:00N 48°41' W 004°44'5 0.6
2017-Aug-28 08:49N 48°37' W 004°37'2 4.9
2017-Aug-28 08:27N 48°38' W 004°40'4 7.6
2017-Aug-28 07:57N 48°39' W 004°45'2 5.3
2017-Aug-28 07:30N 48°39' W 004°49'3 7.0
2017-Aug-28 07:01N 48°36' W 004°49'2 4.8
2017-Aug-28 06:31N 48°34' W 004°51'3 5.7
2017-Aug-28 06:00N 48°32' W 004°55'4 7.5
2017-Aug-28 05:30N 48°32' W 005°01'4 7.8
2017-Aug-28 05:01N 48°32' W 005°07'4 6.8
2017-Aug-28 04:23N 48°31' W 005°13'4 2.8
2017-Aug-28 02:58N 48°27' W 005°14'12 2.3
2017-Aug-27 21:58N 48°16' W 005°19'7 6.2
2017-Aug-27 20:53N 48°10' W 005°13'5 5.4
2017-Aug-27 19:53N 48°05' W 005°10'6 6.9
2017-Aug-27 18:58N 48°01' W 005°03'7 8.4
2017-Aug-27 18:08N 47°57' W 004°54'2 8.0
2017-Aug-27 17:53N 47°56' W 004°52'  
2017-Aug-22 11:28N 47°42' W 003°33'2 5.1
2017-Aug-22 11:00N 47°43' W 003°36'2 3.9
2017-Aug-22 10:29N 47°42' W 003°38'17 0.7
2017-Aug-21 10:59N 47°48' W 004°01'  
Track history (hours):
 
Tides and Currents Weather Stations Pressure Air Temp Water Temp Dewpoint Dewpoint Depression Visibility Wind Speed Wind Dir Waves Ship Positions

Zanzibar

Last reported at 2017-Aug-31 07:53 UTC. Time now 2017-Sep-23 02:29 UTC.
Position N 47°54' W 004°50'.
Warning: this ship's position is 22 days out of date.

Type: Sailing vessel. MMSI: 227394350.

Date/timePositionNaut miles runAvg speedWind from/ knotsBaromVisibWave heightAir tempDewpointWater temp
2017-Aug-31 07:53N 47°54' W 004°50'2 4.5
2017-Aug-31 07:30N 47°55' W 004°52'2 4.6
2017-Aug-31 06:59N 47°56' W 004°55'5 5.3
2017-Aug-31 05:58N 47°59' W 005°02'5 4.5
2017-Aug-31 04:58N 48°01' W 005°07'5 4.7
2017-Aug-31 03:58N 48°05' W 005°11'5 4.7
2017-Aug-31 02:58N 48°09' W 005°15'6 5.6
2017-Aug-31 01:53N 48°15' W 005°18'44 0.9
2017-Aug-28 23:13N 48°59' W 005°14'4 6.0
2017-Aug-28 22:35N 48°58' W 005°08'0 5.5
2017-Aug-28 22:30N 48°58' W 005°08'9 4.6
2017-Aug-28 20:34N 48°51' W 004°58'0 4.2
2017-Aug-28 20:31N 48°51' W 004°58'8 5.3
2017-Aug-28 18:56N 48°45' W 004°49'4 6.3
2017-Aug-28 18:17N 48°42' W 004°45'2 5.9
2017-Aug-28 18:00N 48°41' W 004°44'5 0.6
2017-Aug-28 08:49N 48°37' W 004°37'2 4.9
2017-Aug-28 08:27N 48°38' W 004°40'4 7.6
2017-Aug-28 07:57N 48°39' W 004°45'2 5.3
2017-Aug-28 07:30N 48°39' W 004°49'3 7.0
2017-Aug-28 07:01N 48°36' W 004°49'2 4.8
2017-Aug-28 06:31N 48°34' W 004°51'3 5.7
2017-Aug-28 06:00N 48°32' W 004°55'4 7.5
2017-Aug-28 05:30N 48°32' W 005°01'4 7.8
2017-Aug-28 05:01N 48°32' W 005°07'4 6.8
2017-Aug-28 04:23N 48°31' W 005°13'4 2.8
2017-Aug-28 02:58N 48°27' W 005°14'12 2.3
2017-Aug-27 21:58N 48°16' W 005°19'7 6.2
2017-Aug-27 20:53N 48°10' W 005°13'5 5.4
2017-Aug-27 19:53N 48°05' W 005°10'6 6.9
2017-Aug-27 18:58N 48°01' W 005°03'7 8.4
2017-Aug-27 18:08N 47°57' W 004°54'2 8.0
2017-Aug-27 17:53N 47°56' W 004°52'  
2017-Aug-22 11:28N 47°42' W 003°33'2 5.1
2017-Aug-22 11:00N 47°43' W 003°36'2 3.9
2017-Aug-22 10:29N 47°42' W 003°38'17 0.7
2017-Aug-21 10:59N 47°48' W 004°01'  

Dump ship's entire track history